Time;durP1;ratioP1;P1;durP2;ratioP2;P2;SDS_P1;SDS_P2;PMS_P1;PMS_P2;Temp;Humidity;BMP_temperature;BMP_pressure;BME280_temperature;BME280_humidity;BME280_pressure;Samples;Min_cycle;Max_cycle;Signal;HPM_P1;HPM_P2
2021/12/20 00:01:41;;;;;;;20.55;6.93;;;;;;;;;;5043903;28;20071;-80
2021/12/20 00:04:07;;;;;;;23.80;6.57;;;;;;;;;;5044087;28;20036;-79
2021/12/20 00:06:33;;;;;;;17.48;6.03;;;;;;;;;;5061737;28;20057;-79
2021/12/20 00:08:59;;;;;;;14.90;6.05;;;;;;;;;;5043968;28;20518;-78
2021/12/20 00:11:25;;;;;;;14.05;5.93;;;;;;;;;;5070217;28;20063;-78
2021/12/20 00:13:51;;;;;;;17.10;6.38;;;;;;;;;;5061403;28;20056;-80
2021/12/20 00:16:17;;;;;;;16.38;5.85;;;;;;;;;;5068441;28;20047;-78
2021/12/20 00:18:43;;;;;;;16.48;5.78;;;;;;;;;;5057895;28;20072;-77
2021/12/20 00:21:10;;;;;;;17.98;5.65;;;;;;;;;;5057531;28;20048;-80
2021/12/20 00:23:36;;;;;;;18.65;5.70;;;;;;;;;;5060635;28;20128;-79
2021/12/20 00:26:02;;;;;;;17.45;6.32;;;;;;;;;;5043486;28;20400;-77
2021/12/20 00:28:28;;;;;;;18.10;5.55;;;;;;;;;;5058707;28;20463;-78
2021/12/20 00:30:54;;;;;;;17.30;5.38;;;;;;;;;;5060807;28;20071;-79
2021/12/20 00:33:20;;;;;;;21.80;5.53;;;;;;;;;;5060407;28;20041;-80
2021/12/20 00:35:47;;;;;;;30.90;5.28;;;;;;;;;;5069254;28;20059;-79
2021/12/20 00:40:58;;;;;;;17.67;5.47;;;;;;;;;;5062823;28;20105;-80
2021/12/20 00:43:24;;;;;;;22.45;5.20;;;;;;;;;;5045652;28;20037;-81
2021/12/20 00:45:50;;;;;;;14.82;4.70;;;;;;;;;;5061259;28;20029;-79
2021/12/20 00:48:16;;;;;;;18.15;4.93;;;;;;;;;;5041012;28;20440;-78
2021/12/20 00:50:42;;;;;;;21.33;5.10;;;;;;;;;;5057654;28;20049;-78
2021/12/20 00:53:08;;;;;;;25.35;4.95;;;;;;;;;;5045127;28;20045;-80
2021/12/20 00:55:34;;;;;;;21.88;5.13;;;;;;;;;;5043049;28;20096;-78
2021/12/20 00:58:00;;;;;;;17.92;4.90;;;;;;;;;;5044377;28;20072;-81
2021/12/20 01:00:28;;;;;;;14.82;4.60;;;;;;;;;;5062617;28;20048;-80
2021/12/20 01:02:54;;;;;;;27.63;5.15;;;;;;;;;;5061359;28;20099;-78
2021/12/20 01:05:20;;;;;;;27.15;5.28;;;;;;;;;;5044202;28;20104;-80
2021/12/20 01:07:46;;;;;;;19.65;5.20;;;;;;;;;;5041899;28;20033;-77
2021/12/20 01:10:12;;;;;;;23.92;5.82;;;;;;;;;;5063413;28;20098;-78
2021/12/20 01:12:46;;;;;;;22.83;5.15;;;;;;;;;;5060218;28;20345;-77
2021/12/20 01:15:13;;;;;;;18.75;4.85;;;;;;;;;;5061604;28;20095;-78
2021/12/20 01:17:39;;;;;;;20.48;5.38;;;;;;;;;;5041786;28;20521;-79
2021/12/20 01:20:06;;;;;;;21.88;5.82;;;;;;;;;;5058597;28;20531;-78
2021/12/20 01:22:31;;;;;;;18.75;5.40;;;;;;;;;;5062568;28;20082;-77
2021/12/20 01:24:57;;;;;;;22.70;5.55;;;;;;;;;;5056473;28;20098;-78
2021/12/20 01:27:23;;;;;;;19.42;5.50;;;;;;;;;;5040192;28;20041;-79
2021/12/20 01:29:49;;;;;;;24.25;5.78;;;;;;;;;;5057624;28;20338;-77
2021/12/20 01:32:15;;;;;;;18.17;5.28;;;;;;;;;;5039573;28;20037;-78
2021/12/20 01:34:41;;;;;;;17.30;5.13;;;;;;;;;;5056747;28;20049;-78
2021/12/20 01:37:07;;;;;;;25.27;5.53;;;;;;;;;;5057161;28;20045;-78
2021/12/20 01:39:33;;;;;;;18.15;5.47;;;;;;;;;;5059254;28;20419;-77
2021/12/20 01:42:02;;;;;;;15.90;5.30;;;;;;;;;;5062670;28;20049;-78
2021/12/20 01:44:30;;;;;;;21.52;5.90;;;;;;;;;;5058485;28;20464;-79
2021/12/20 01:46:56;;;;;;;20.98;5.30;;;;;;;;;;5059921;28;20031;-79
2021/12/20 01:49:22;;;;;;;21.17;5.95;;;;;;;;;;5058854;28;20051;-78
2021/12/20 01:52:13;;;;;;;22.60;5.57;;;;;;;;;;5040979;28;20334;-78
2021/12/20 01:54:37;;;;;;;20.30;5.35;;;;;;;;;;5058072;28;20040;-77
2021/12/20 01:57:03;;;;;;;22.15;5.40;;;;;;;;;;5040713;28;20025;-78
2021/12/20 01:59:29;;;;;;;22.10;4.85;;;;;;;;;;5058145;28;20033;-78
2021/12/20 02:01:56;;;;;;;17.30;5.55;;;;;;;;;;5057858;28;20045;-79
2021/12/20 02:04:22;;;;;;;22.75;5.30;;;;;;;;;;5060832;28;20033;-78
2021/12/20 02:06:49;;;;;;;22.92;4.85;;;;;;;;;;5039382;28;20041;-77
2021/12/20 02:09:16;;;;;;;22.85;5.38;;;;;;;;;;5038898;28;20045;-78
2021/12/20 02:11:43;;;;;;;16.35;4.85;;;;;;;;;;5039019;28;20041;-79
2021/12/20 02:14:09;;;;;;;28.00;5.78;;;;;;;;;;5040895;28;20037;-79
2021/12/20 02:16:35;;;;;;;30.85;5.60;;;;;;;;;;5057584;28;20037;-78
2021/12/20 02:19:02;;;;;;;24.67;6.28;;;;;;;;;;5044207;28;20472;-79
2021/12/20 02:21:28;;;;;;;19.05;5.15;;;;;;;;;;5062466;28;20399;-79
2021/12/20 02:23:54;;;;;;;24.67;5.15;;;;;;;;;;5047395;28;20037;-79
2021/12/20 02:26:22;;;;;;;23.15;4.95;;;;;;;;;;5064858;28;20045;-78
2021/12/20 02:28:50;;;;;;;23.17;4.93;;;;;;;;;;5064350;28;20041;-79
2021/12/20 02:38:57;;;;;;;24.80;5.05;;;;;;;;;;5055130;28;20574;-78
2021/12/20 02:41:27;;;;;;;29.30;4.82;;;;;;;;;;5055259;28;20055;-77
2021/12/20 02:44:04;;;;;;;23.85;5.47;;;;;;;;;;5038403;28;20448;-78
2021/12/20 02:49:04;;;;;;;18.33;4.63;;;;;;;;;;5056543;28;20057;-77
2021/12/20 02:51:30;;;;;;;24.30;4.63;;;;;;;;;;5056261;28;20032;-78
2021/12/20 02:53:56;;;;;;;21.95;4.10;;;;;;;;;;5040152;28;20044;-77
2021/12/20 02:56:22;;;;;;;23.40;4.10;;;;;;;;;;5041512;28;20052;-79
2021/12/20 02:58:48;;;;;;;25.42;4.35;;;;;;;;;;5059996;28;20420;-79
2021/12/20 03:01:15;;;;;;;31.17;4.90;;;;;;;;;;5061161;28;20122;-79
2021/12/20 03:03:41;;;;;;;25.67;4.07;;;;;;;;;;5058255;28;20049;-79
2021/12/20 03:06:11;;;;;;;17.35;3.75;;;;;;;;;;5056152;28;20037;-79
2021/12/20 03:08:38;;;;;;;31.92;4.47;;;;;;;;;;5039807;28;20029;-79
2021/12/20 03:11:04;;;;;;;22.80;4.13;;;;;;;;;;5055700;28;20071;-78
2021/12/20 03:13:30;;;;;;;20.67;4.00;;;;;;;;;;5055594;28;20444;-79
2021/12/20 03:15:56;;;;;;;27.92;4.47;;;;;;;;;;5038888;28;20437;-78
2021/12/20 03:18:22;;;;;;;25.08;4.40;;;;;;;;;;5069187;28;20041;-78
2021/12/20 03:20:48;;;;;;;30.42;4.72;;;;;;;;;;5063339;28;20041;-78
2021/12/20 03:23:14;;;;;;;28.27;4.13;;;;;;;;;;5064111;28;20129;-78
2021/12/20 03:25:40;;;;;;;26.40;4.32;;;;;;;;;;5055897;28;20033;-78
2021/12/20 03:28:06;;;;;;;23.65;4.03;;;;;;;;;;5054736;28;20230;-78
2021/12/20 03:30:32;;;;;;;15.85;4.10;;;;;;;;;;5054618;28;20037;-77
2021/12/20 03:32:58;;;;;;;26.15;4.20;;;;;;;;;;5038256;28;20045;-79
2021/12/20 03:35:24;;;;;;;27.00;4.18;;;;;;;;;;5042864;28;20064;-79
2021/12/20 03:37:50;;;;;;;24.80;3.90;;;;;;;;;;5044161;28;20056;-79
2021/12/20 03:40:16;;;;;;;25.75;4.15;;;;;;;;;;5062057;28;20433;-78
2021/12/20 03:42:44;;;;;;;21.52;4.25;;;;;;;;;;5045402;28;20318;-79
2021/12/20 03:45:13;;;;;;;27.73;4.35;;;;;;;;;;5066858;28;20043;-77
2021/12/20 03:47:39;;;;;;;27.23;4.35;;;;;;;;;;5063032;28;20124;-78
2021/12/20 03:50:06;;;;;;;24.33;4.30;;;;;;;;;;5042435;28;20364;-78
2021/12/20 03:52:32;;;;;;;19.40;3.63;;;;;;;;;;5060276;28;20110;-78
2021/12/20 03:54:59;;;;;;;23.95;4.60;;;;;;;;;;5045816;28;20041;-78
2021/12/20 03:57:25;;;;;;;21.45;4.47;;;;;;;;;;5047290;28;20051;-78
2021/12/20 03:59:53;;;;;;;17.73;4.28;;;;;;;;;;5063620;28;20100;-80
2021/12/20 04:02:20;;;;;;;26.52;4.53;;;;;;;;;;5064739;28;20202;-79
2021/12/20 04:04:46;;;;;;;21.95;4.50;;;;;;;;;;5051262;28;20047;-79
2021/12/20 04:07:12;;;;;;;21.63;3.83;;;;;;;;;;5048207;28;20033;-79
2021/12/20 04:09:38;;;;;;;26.48;4.30;;;;;;;;;;5065321;28;20228;-79
2021/12/20 04:12:05;;;;;;;21.48;4.60;;;;;;;;;;5063903;28;20491;-78
2021/12/20 04:14:31;;;;;;;22.42;3.95;;;;;;;;;;5061888;28;20051;-77
2021/12/20 04:16:57;;;;;;;23.17;4.07;;;;;;;;;;5063521;28;20040;-78
2021/12/20 04:19:23;;;;;;;16.25;3.45;;;;;;;;;;5047928;28;20052;-78
2021/12/20 04:21:49;;;;;;;20.88;4.07;;;;;;;;;;5047618;28;20448;-80
2021/12/20 04:24:15;;;;;;;25.60;3.53;;;;;;;;;;5066183;28;20035;-79
2021/12/20 04:26:40;;;;;;;31.73;4.88;;;;;;;;;;5048545;28;20528;-79
2021/12/20 04:29:07;;;;;;;22.42;4.03;;;;;;;;;;5047426;28;20047;-76
2021/12/20 04:31:35;;;;;;;24.17;4.53;;;;;;;;;;5063761;28;20042;-79
2021/12/20 04:34:01;;;;;;;25.05;4.68;;;;;;;;;;5081229;28;20075;-78
2021/12/20 04:36:29;;;;;;;22.00;3.92;;;;;;;;;;5077963;28;20036;-78
2021/12/20 04:38:55;;;;;;;24.92;4.13;;;;;;;;;;5049932;28;20444;-80
2021/12/20 04:41:21;;;;;;;23.52;4.25;;;;;;;;;;5064094;28;20075;-77
2021/12/20 04:43:47;;;;;;;22.60;4.00;;;;;;;;;;5062190;28;20040;-77
2021/12/20 04:46:13;;;;;;;26.10;4.32;;;;;;;;;;5044061;28;20033;-78
2021/12/20 04:48:39;;;;;;;30.30;4.40;;;;;;;;;;5061432;28;20459;-79
2021/12/20 04:51:05;;;;;;;21.98;4.32;;;;;;;;;;5044945;28;20094;-77
2021/12/20 04:53:31;;;;;;;32.20;4.88;;;;;;;;;;5063776;28;20037;-78
2021/12/20 04:55:57;;;;;;;23.45;4.15;;;;;;;;;;5070551;28;20044;-78
2021/12/20 04:58:23;;;;;;;27.02;5.10;;;;;;;;;;5065340;28;20085;-77
2021/12/20 05:00:49;;;;;;;25.05;4.38;;;;;;;;;;5060349;28;20062;-77
2021/12/20 05:03:15;;;;;;;30.65;5.10;;;;;;;;;;5044962;28;20063;-77
2021/12/20 05:05:41;;;;;;;31.02;5.20;;;;;;;;;;5048414;28;20047;-80
2021/12/20 05:08:07;;;;;;;21.10;4.53;;;;;;;;;;5047811;28;20043;-78
2021/12/20 05:10:37;;;;;;;27.15;4.82;;;;;;;;;;5047844;28;20094;-79
2021/12/20 05:13:05;;;;;;;31.85;5.65;;;;;;;;;;5050844;28;20048;-79
2021/12/20 05:15:31;;;;;;;31.85;5.47;;;;;;;;;;5094599;28;20482;-79
2021/12/20 05:17:57;;;;;;;28.42;5.18;;;;;;;;;;5049017;28;20048;-80
2021/12/20 05:20:23;;;;;;;29.75;5.07;;;;;;;;;;5048492;28;20037;-80
2021/12/20 05:22:49;;;;;;;26.88;5.18;;;;;;;;;;5072245;28;20032;-79
2021/12/20 05:25:16;;;;;;;27.77;5.68;;;;;;;;;;5073546;28;20033;-81
2021/12/20 05:27:42;;;;;;;42.22;6.80;;;;;;;;;;5063395;28;20097;-81
2021/12/20 05:30:08;;;;;;;28.95;5.35;;;;;;;;;;5063303;28;20240;-83
2021/12/20 05:32:34;;;;;;;32.20;5.78;;;;;;;;;;5046590;28;20040;-82
2021/12/20 05:35:00;;;;;;;32.03;5.57;;;;;;;;;;5061989;28;20044;-81
2021/12/20 05:37:27;;;;;;;31.08;5.85;;;;;;;;;;5046008;28;20047;-82
2021/12/20 05:39:52;;;;;;;33.45;6.53;;;;;;;;;;5046211;28;20424;-82
2021/12/20 05:42:19;;;;;;;38.13;7.40;;;;;;;;;;5062219;28;20104;-80
2021/12/20 05:44:45;;;;;;;32.72;6.75;;;;;;;;;;5046605;28;20032;-81
2021/12/20 05:47:11;;;;;;;32.80;6.63;;;;;;;;;;5045492;28;20043;-81
2021/12/20 05:49:36;;;;;;;25.13;6.78;;;;;;;;;;5045774;28;20064;-81
2021/12/20 05:52:03;;;;;;;40.03;6.72;;;;;;;;;;5062797;28;20440;-82
2021/12/20 05:54:30;;;;;;;33.17;6.50;;;;;;;;;;5061840;28;20036;-80
2021/12/20 05:56:56;;;;;;;38.95;6.90;;;;;;;;;;5045421;28;20040;-82
2021/12/20 05:59:22;;;;;;;29.73;5.93;;;;;;;;;;5045163;28;20408;-83
2021/12/20 06:01:48;;;;;;;29.08;6.72;;;;;;;;;;5052500;28;20044;-81
2021/12/20 06:04:14;;;;;;;35.80;6.47;;;;;;;;;;5047389;28;20066;-81
2021/12/20 06:06:40;;;;;;;38.38;6.30;;;;;;;;;;5047984;28;20116;-81
2021/12/20 06:09:06;;;;;;;34.47;7.22;;;;;;;;;;5064301;28;20047;-81
2021/12/20 06:11:32;;;;;;;48.50;7.72;;;;;;;;;;5071309;28;20032;-78
2021/12/20 06:13:58;;;;;;;41.63;7.63;;;;;;;;;;5090726;28;20233;-80
2021/12/20 06:16:24;;;;;;;41.17;6.72;;;;;;;;;;5065787;28;20029;-81
2021/12/20 06:18:51;;;;;;;42.13;7.68;;;;;;;;;;5064994;28;20047;-81
2021/12/20 06:21:18;;;;;;;39.10;7.50;;;;;;;;;;5066193;28;20064;-81
2021/12/20 06:23:44;;;;;;;43.45;6.93;;;;;;;;;;5050823;28;20044;-80
2021/12/20 06:26:10;;;;;;;42.33;7.65;;;;;;;;;;5051034;28;20037;-81
2021/12/20 06:28:36;;;;;;;37.88;6.53;;;;;;;;;;5068552;28;20094;-81
2021/12/20 06:31:02;;;;;;;29.17;6.18;;;;;;;;;;5085781;28;20036;-80
2021/12/20 06:33:28;;;;;;;42.45;7.32;;;;;;;;;;5067288;28;20040;-81
2021/12/20 06:35:54;;;;;;;42.28;7.25;;;;;;;;;;5067938;28;20060;-80
2021/12/20 06:38:21;;;;;;;29.92;6.55;;;;;;;;;;5046267;28;20068;-80
2021/12/20 06:40:48;;;;;;;31.80;6.25;;;;;;;;;;5044898;28;20044;-81
2021/12/20 06:43:14;;;;;;;38.03;6.50;;;;;;;;;;5043622;28;20068;-82
2021/12/20 06:45:40;;;;;;;31.40;5.80;;;;;;;;;;5044749;28;20041;-80
2021/12/20 06:48:06;;;;;;;37.40;6.63;;;;;;;;;;5046799;28;20105;-78
2021/12/20 06:50:32;;;;;;;28.67;5.25;;;;;;;;;;5081186;28;20036;-78
2021/12/20 06:52:58;;;;;;;30.63;6.53;;;;;;;;;;5045387;28;20372;-80
2021/12/20 06:55:24;;;;;;;41.20;6.75;;;;;;;;;;5044209;28;20040;-80
2021/12/20 06:57:51;;;;;;;32.60;6.05;;;;;;;;;;5044914;28;20110;-82
2021/12/20 07:00:17;;;;;;;44.88;6.75;;;;;;;;;;5045637;28;20476;-79
2021/12/20 07:02:43;;;;;;;45.35;6.55;;;;;;;;;;5043604;28;20048;-79
2021/12/20 07:05:10;;;;;;;35.63;7.53;;;;;;;;;;5049114;28;20041;-80
2021/12/20 07:07:38;;;;;;;29.75;6.47;;;;;;;;;;5066868;28;20158;-79
2021/12/20 07:10:05;;;;;;;45.88;10.05;;;;;;;;;;5063419;28;20095;-80
2021/12/20 07:12:36;;;;;;;49.13;13.13;;;;;;;;;;5058267;28;20040;-80
2021/12/20 07:15:03;;;;;;;53.38;11.57;;;;;;;;;;5069664;28;20137;-80
2021/12/20 07:17:30;;;;;;;36.05;7.18;;;;;;;;;;5087788;28;20043;-80
2021/12/20 07:19:57;;;;;;;37.65;7.22;;;;;;;;;;5069878;28;20041;-80
2021/12/20 07:22:24;;;;;;;45.70;7.70;;;;;;;;;;5052105;28;20041;-79
2021/12/20 07:24:50;;;;;;;48.50;8.40;;;;;;;;;;5086375;28;20067;-80
2021/12/20 07:27:17;;;;;;;42.35;9.02;;;;;;;;;;5068703;28;20046;-80
2021/12/20 07:29:43;;;;;;;38.60;8.10;;;;;;;;;;5065036;28;20028;-80
2021/12/20 07:32:11;;;;;;;42.03;9.52;;;;;;;;;;5071980;28;20144;-78
2021/12/20 07:34:37;;;;;;;39.75;9.75;;;;;;;;;;5074181;28;20040;-78
2021/12/20 07:37:03;;;;;;;53.28;10.82;;;;;;;;;;5066978;28;20045;-78
2021/12/20 07:39:29;;;;;;;45.17;10.00;;;;;;;;;;5084048;28;20060;-80
2021/12/20 07:41:55;;;;;;;34.80;9.13;;;;;;;;;;5065020;28;20051;-78
2021/12/20 07:44:21;;;;;;;39.28;8.15;;;;;;;;;;5069322;28;20036;-79
2021/12/20 07:46:47;;;;;;;47.70;8.55;;;;;;;;;;5068727;28;20041;-80
2021/12/20 07:49:13;;;;;;;36.38;9.43;;;;;;;;;;5051162;28;20040;-79
2021/12/20 07:51:39;;;;;;;43.00;9.60;;;;;;;;;;5051147;28;20036;-80
2021/12/20 07:54:06;;;;;;;34.15;9.02;;;;;;;;;;5068231;28;20041;-81
2021/12/20 07:56:32;;;;;;;29.08;8.82;;;;;;;;;;5050950;28;20521;-80
2021/12/20 07:58:58;;;;;;;43.95;9.35;;;;;;;;;;5051016;28;20044;-79
2021/12/20 08:01:23;;;;;;;46.42;10.70;;;;;;;;;;5048868;28;20099;-79
2021/12/20 08:03:50;;;;;;;48.33;12.00;;;;;;;;;;5066493;28;20396;-79
2021/12/20 08:06:16;;;;;;;56.17;11.73;;;;;;;;;;5049039;28;20033;-79
2021/12/20 08:08:42;;;;;;;50.40;10.43;;;;;;;;;;5065847;28;20041;-80
2021/12/20 08:11:08;;;;;;;50.22;12.10;;;;;;;;;;5072507;28;20021;-79
2021/12/20 08:13:34;;;;;;;41.35;9.65;;;;;;;;;;5068768;28;20146;-79
2021/12/20 08:16:00;;;;;;;43.85;10.18;;;;;;;;;;5066064;28;20064;-79
2021/12/20 08:18:26;;;;;;;46.22;10.68;;;;;;;;;;5049355;28;20037;-79
2021/12/20 08:20:52;;;;;;;54.17;10.98;;;;;;;;;;5066383;28;20041;-79
2021/12/20 08:23:18;;;;;;;55.22;10.88;;;;;;;;;;5048506;28;20146;-80
2021/12/20 08:25:44;;;;;;;38.45;9.98;;;;;;;;;;5066366;28;20037;-80
2021/12/20 08:28:10;;;;;;;35.28;8.82;;;;;;;;;;5066692;28;20037;-80
2021/12/20 08:30:37;;;;;;;37.28;9.88;;;;;;;;;;5066275;28;20067;-81
2021/12/20 08:33:03;;;;;;;39.60;8.88;;;;;;;;;;5065680;28;20063;-81
2021/12/20 08:35:29;;;;;;;41.33;9.25;;;;;;;;;;5065182;28;20053;-81
2021/12/20 08:37:55;;;;;;;40.35;9.52;;;;;;;;;;5049883;28;20037;-79
2021/12/20 08:40:22;;;;;;;38.50;8.82;;;;;;;;;;5067286;28;20064;-80
2021/12/20 08:42:48;;;;;;;52.53;9.65;;;;;;;;;;5049004;28;20427;-79
2021/12/20 08:45:14;;;;;;;41.92;8.40;;;;;;;;;;5048865;28;20040;-79
2021/12/20 08:47:40;;;;;;;37.22;9.52;;;;;;;;;;5049218;28;20059;-79
2021/12/20 08:50:08;;;;;;;35.45;9.75;;;;;;;;;;5065024;28;20037;-78
2021/12/20 08:52:34;;;;;;;40.55;11.45;;;;;;;;;;5048536;28;20471;-79
2021/12/20 08:55:00;;;;;;;40.85;11.98;;;;;;;;;;5065229;28;20472;-79
2021/12/20 08:57:26;;;;;;;42.72;11.13;;;;;;;;;;5048628;28;20037;-80
2021/12/20 08:59:52;;;;;;;41.65;10.60;;;;;;;;;;5049209;28;20052;-80
2021/12/20 09:02:18;;;;;;;41.03;10.95;;;;;;;;;;5065071;28;20057;-80
2021/12/20 09:04:44;;;;;;;51.88;11.98;;;;;;;;;;5048728;28;20037;-80
2021/12/20 09:07:15;;;;;;;44.83;12.30;;;;;;;;;;5065751;28;20037;-79
2021/12/20 09:09:44;;;;;;;55.05;12.20;;;;;;;;;;5065730;28;20060;-81
2021/12/20 09:12:10;;;;;;;46.65;11.77;;;;;;;;;;5062016;28;20033;-79
2021/12/20 09:14:36;;;;;;;40.30;13.15;;;;;;;;;;5062536;28;20098;-81
2021/12/20 09:17:02;;;;;;;61.38;18.60;;;;;;;;;;5063981;28;20041;-81
2021/12/20 09:19:28;;;;;;;58.05;21.02;;;;;;;;;;5061854;28;20048;-79
2021/12/20 09:21:54;;;;;;;89.70;25.77;;;;;;;;;;5067003;28;20032;-79
2021/12/20 09:24:20;;;;;;;64.88;23.50;;;;;;;;;;5061481;28;20045;-81
2021/12/20 09:26:46;;;;;;;67.30;23.30;;;;;;;;;;5064582;28;20116;-81
2021/12/20 09:29:12;;;;;;;61.10;22.67;;;;;;;;;;5063472;28;20079;-80
2021/12/20 09:31:39;;;;;;;68.07;24.65;;;;;;;;;;5047618;28;20041;-80
2021/12/20 09:34:05;;;;;;;70.28;23.58;;;;;;;;;;5047138;28;20033;-82
2021/12/20 09:36:33;;;;;;;77.63;24.50;;;;;;;;;;5066315;28;20060;-81
2021/12/20 09:38:59;;;;;;;60.75;20.05;;;;;;;;;;5067455;28;20051;-80
2021/12/20 09:42:00;;;;;;;68.13;20.77;;;;;;;;;;5046657;28;20076;-80
2021/12/20 09:44:13;;;;;;;74.68;17.63;;;;;;;;;;5061657;28;20044;-81
2021/12/20 09:46:40;;;;;;;55.20;17.83;;;;;;;;;;5062489;28;20110;-81
2021/12/20 09:49:06;;;;;;;64.38;17.88;;;;;;;;;;5062462;28;20051;-81
2021/12/20 09:51:32;;;;;;;52.53;17.50;;;;;;;;;;5064052;28;20344;-80
2021/12/20 09:53:58;;;;;;;61.40;17.73;;;;;;;;;;5045462;28;20380;-81
2021/12/20 09:56:24;;;;;;;62.88;19.67;;;;;;;;;;5062542;28;20041;-80
2021/12/20 09:58:51;;;;;;;68.22;19.33;;;;;;;;;;5064045;28;20036;-81
2021/12/20 10:01:18;;;;;;;75.45;21.83;;;;;;;;;;5045381;28;20045;-80
2021/12/20 10:03:44;;;;;;;64.38;17.92;;;;;;;;;;5062614;28;20055;-80
2021/12/20 10:06:11;;;;;;;69.93;17.50;;;;;;;;;;5063341;28;20041;-81
2021/12/20 10:08:48;;;;;;;58.75;17.35;;;;;;;;;;5063432;28;20033;-81
2021/12/20 10:11:21;;;;;;;46.95;16.42;;;;;;;;;;5048067;28;20448;-80
2021/12/20 10:13:47;;;;;;;59.95;16.58;;;;;;;;;;5063740;28;20040;-81
2021/12/20 10:16:20;;;;;;;54.92;16.33;;;;;;;;;;5063742;28;20432;-80
2021/12/20 10:18:46;;;;;;;54.42;16.95;;;;;;;;;;5062401;28;20044;-81
2021/12/20 10:21:12;;;;;;;55.42;17.05;;;;;;;;;;5051610;28;20072;-80
2021/12/20 10:23:45;;;;;;;56.33;16.55;;;;;;;;;;5051245;28;20052;-81
2021/12/20 10:26:15;;;;;;;52.50;15.90;;;;;;;;;;5061888;28;20092;-81
2021/12/20 10:28:41;;;;;;;59.42;15.63;;;;;;;;;;5064148;28;20065;-81
2021/12/20 10:31:08;;;;;;;49.90;14.35;;;;;;;;;;5062160;28;20044;-80
2021/12/20 10:33:35;;;;;;;53.88;15.23;;;;;;;;;;5062533;28;20046;-80
2021/12/20 10:36:01;;;;;;;56.50;14.60;;;;;;;;;;5045691;28;20535;-80
2021/12/20 10:38:29;;;;;;;55.20;16.00;;;;;;;;;;5062039;28;20040;-81
2021/12/20 10:40:56;;;;;;;49.03;13.95;;;;;;;;;;5059514;28;20049;-80
2021/12/20 10:43:23;;;;;;;42.05;13.32;;;;;;;;;;5057738;28;20064;-79
2021/12/20 10:45:53;;;;;;;46.65;12.55;;;;;;;;;;5042509;28;20040;-78
2021/12/20 10:48:19;;;;;;;50.38;12.00;;;;;;;;;;5065653;28;20045;-78
2021/12/20 10:50:45;;;;;;;39.10;11.68;;;;;;;;;;5060884;28;20037;-77
2021/12/20 10:53:16;;;;;;;45.80;12.32;;;;;;;;;;5060831;28;20052;-77
2021/12/20 10:55:46;;;;;;;38.28;11.63;;;;;;;;;;5064202;28;20080;-78
2021/12/20 10:58:27;;;;;;;50.58;11.65;;;;;;;;;;5060220;28;20065;-78
2021/12/20 11:01:17;;;;;;;51.25;12.23;;;;;;;;;;5059397;28;20049;-78
2021/12/20 11:03:45;;;;;;;40.22;10.88;;;;;;;;;;5059588;28;20346;-78
2021/12/20 11:11:28;;;;;;;38.38;10.05;;;;;;;;;;5059125;28;20029;-78
2021/12/20 11:13:54;;;;;;;41.45;10.10;;;;;;;;;;5058947;28;20126;-80
2021/12/20 11:16:39;;;;;;;37.45;9.23;;;;;;;;;;5042000;28;20072;-78
2021/12/20 11:19:09;;;;;;;32.60;9.50;;;;;;;;;;5058365;28;20041;-79
2021/12/20 11:21:36;;;;;;;35.70;8.52;;;;;;;;;;5042661;28;20376;-80
2021/12/20 11:24:02;;;;;;;33.33;9.13;;;;;;;;;;5060035;28;20037;-78
2021/12/20 11:26:28;;;;;;;29.60;9.00;;;;;;;;;;5058818;28;20084;-77
2021/12/20 11:28:58;;;;;;;35.20;8.75;;;;;;;;;;5063586;28;20099;-78
2021/12/20 11:31:24;;;;;;;33.50;8.60;;;;;;;;;;5063154;28;20033;-79
2021/12/20 11:33:50;;;;;;;24.92;6.40;;;;;;;;;;5064144;28;20052;-80
2021/12/20 11:36:16;;;;;;;31.10;6.78;;;;;;;;;;5063062;28;20049;-80
2021/12/20 11:38:42;;;;;;;21.25;6.18;;;;;;;;;;5046328;28;20141;-80
2021/12/20 11:41:08;;;;;;;31.52;5.85;;;;;;;;;;5045983;28;20467;-81
2021/12/20 11:43:34;;;;;;;24.92;6.15;;;;;;;;;;5045300;28;20067;-81
2021/12/20 11:46:00;;;;;;;32.50;6.15;;;;;;;;;;5065851;28;20052;-80
2021/12/20 11:48:29;;;;;;;27.50;6.47;;;;;;;;;;5044845;28;20037;-80
2021/12/20 11:50:56;;;;;;;24.42;6.00;;;;;;;;;;5051037;28;20025;-78
2021/12/20 11:53:22;;;;;;;34.20;5.55;;;;;;;;;;5072485;28;20044;-78
2021/12/20 11:55:52;;;;;;;24.27;5.30;;;;;;;;;;5055817;28;20047;-78
2021/12/20 11:58:18;;;;;;;27.33;5.18;;;;;;;;;;5072770;28;20041;-81
2021/12/20 12:00:53;;;;;;;19.05;5.18;;;;;;;;;;5074434;28;20056;-81
2021/12/20 12:03:19;;;;;;;17.55;4.45;;;;;;;;;;5066526;28;20040;-81
2021/12/20 12:06:04;;;;;;;19.45;4.55;;;;;;;;;;5067349;28;20505;-79
2021/12/20 12:08:30;;;;;;;18.50;4.50;;;;;;;;;;5066682;28;20036;-81
2021/12/20 12:11:05;;;;;;;21.10;5.40;;;;;;;;;;5084837;28;20043;-81
2021/12/20 12:14:01;;;;;;;18.17;4.80;;;;;;;;;;5067110;28;20044;-81
2021/12/20 12:16:47;;;;;;;19.80;4.20;;;;;;;;;;5075503;28;20079;-80
2021/12/20 12:19:13;;;;;;;12.98;2.70;;;;;;;;;;5067484;28;20040;-80
2021/12/20 12:21:40;;;;;;;12.38;2.83;;;;;;;;;;5050129;28;20100;-79
2021/12/20 12:24:07;;;;;;;14.38;3.08;;;;;;;;;;5066228;28;20079;-80
2021/12/20 12:26:37;;;;;;;9.00;2.10;;;;;;;;;;5049845;28;20067;-80
2021/12/20 12:29:04;;;;;;;11.18;2.70;;;;;;;;;;5068242;28;20101;-82
2021/12/20 12:31:49;;;;;;;9.02;2.33;;;;;;;;;;5071109;28;20036;-78
2021/12/20 12:34:15;;;;;;;13.52;2.65;;;;;;;;;;5069916;28;20041;-80
2021/12/20 12:36:41;;;;;;;16.13;2.88;;;;;;;;;;5049763;28;20044;-80
2021/12/20 12:39:28;;;;;;;12.07;2.30;;;;;;;;;;5050259;28;20044;-80
2021/12/20 12:41:57;;;;;;;8.23;2.25;;;;;;;;;;5066415;28;20517;-80
2021/12/20 12:44:28;;;;;;;12.45;2.22;;;;;;;;;;5083431;28;20041;-80
2021/12/20 12:46:55;;;;;;;7.38;2.22;;;;;;;;;;5048529;28;20111;-81
2021/12/20 12:49:21;;;;;;;6.28;1.80;;;;;;;;;;5064186;28;20472;-80
2021/12/20 12:51:50;;;;;;;9.00;1.70;;;;;;;;;;5082369;28;20740;-80
2021/12/20 12:54:35;;;;;;;8.90;1.60;;;;;;;;;;5063765;28;20036;-79
2021/12/20 12:57:10;;;;;;;7.35;1.88;;;;;;;;;;5064690;28;20044;-79
2021/12/20 12:59:43;;;;;;;6.03;1.70;;;;;;;;;;5066641;28;20036;-79
2021/12/20 13:02:19;;;;;;;11.35;2.10;;;;;;;;;;5043956;28;20057;-80
2021/12/20 13:04:50;;;;;;;9.85;1.90;;;;;;;;;;5050620;28;20044;-81
2021/12/20 13:07:24;;;;;;;11.93;2.30;;;;;;;;;;5047673;28;20029;-80
2021/12/20 13:09:50;;;;;;;12.20;2.47;;;;;;;;;;5062505;28;20177;-79
2021/12/20 13:15:13;;;;;;;8.00;1.77;;;;;;;;;;5059163;28;20033;-79
2021/12/20 13:17:40;;;;;;;9.88;1.95;;;;;;;;;;5059004;28;20032;-79
2021/12/20 13:20:22;;;;;;;6.18;1.77;;;;;;;;;;5060554;28;20033;-79
2021/12/20 13:22:55;;;;;;;7.57;1.75;;;;;;;;;;5043205;28;20048;-80
2021/12/20 13:25:21;;;;;;;;;;;;;;;;;;5047966;28;20033;-80
2021/12/20 13:27:47;;;;;;;7.00;1.60;;;;;;;;;;5061855;28;19919;-80
2021/12/20 13:30:13;;;;;;;7.13;1.80;;;;;;;;;;5061660;28;20444;-81
2021/12/20 13:32:39;;;;;;;8.25;1.77;;;;;;;;;;5043550;28;20057;-80
2021/12/20 13:35:19;;;;;;;7.47;1.55;;;;;;;;;;5061267;28;20045;-79
2021/12/20 13:37:45;;;;;;;13.00;1.90;;;;;;;;;;5055987;28;20021;-81
2021/12/20 13:40:11;;;;;;;10.07;1.70;;;;;;;;;;5046254;28;20118;-81
2021/12/20 13:42:47;;;;;;;7.10;2.17;;;;;;;;;;5062239;28;20143;-81
2021/12/20 13:45:14;;;;;;;7.32;2.00;;;;;;;;;;5044484;28;20052;-79
2021/12/20 13:47:41;;;;;;;8.00;2.00;;;;;;;;;;5043857;28;20041;-80
2021/12/20 13:50:17;;;;;;;6.25;1.83;;;;;;;;;;5061213;28;20126;-80
2021/12/20 13:52:46;;;;;;;5.45;1.73;;;;;;;;;;5062044;28;20110;-80
2021/12/20 13:55:12;;;;;;;7.07;2.15;;;;;;;;;;5045241;28;20055;-80
2021/12/20 13:57:38;;;;;;;8.25;2.22;;;;;;;;;;5068331;28;20092;-80
2021/12/20 14:00:06;;;;;;;7.35;1.88;;;;;;;;;;5044995;28;20128;-80
2021/12/20 14:02:43;;;;;;;9.98;2.40;;;;;;;;;;5048456;28;20051;-79
2021/12/20 14:05:13;;;;;;;6.57;2.33;;;;;;;;;;5066187;28;20131;-79
2021/12/20 14:07:44;;;;;;;13.63;2.53;;;;;;;;;;5053752;28;20037;-80
2021/12/20 14:10:14;;;;;;;11.52;2.53;;;;;;;;;;5066619;28;20067;-81
2021/12/20 14:12:41;;;;;;;9.23;2.20;;;;;;;;;;5069863;28;20059;-80
2021/12/20 14:15:17;;;;;;;10.23;2.33;;;;;;;;;;5065198;28;20109;-81
2021/12/20 14:17:54;;;;;;;15.68;2.88;;;;;;;;;;5064942;28;20052;-80
2021/12/20 14:20:20;;;;;;;9.93;2.35;;;;;;;;;;5063333;28;20036;-80
2021/12/20 14:23:00;;;;;;;10.43;2.40;;;;;;;;;;5044546;28;20044;-80
2021/12/20 14:25:33;;;;;;;8.85;2.47;;;;;;;;;;5046249;28;20047;-81
2021/12/20 14:27:59;;;;;;;;;;;;;;;;;;5063033;28;20040;-80
2021/12/20 14:30:25;;;;;;;7.20;2.20;;;;;;;;;;5082365;28;19965;-80
2021/12/20 14:32:51;;;;;;;10.57;2.95;;;;;;;;;;5082324;28;20105;-81
2021/12/20 14:35:28;;;;;;;9.30;2.83;;;;;;;;;;5065332;28;20043;-79
2021/12/20 14:37:54;;;;;;;12.60;3.45;;;;;;;;;;5049295;28;20040;-80
2021/12/20 14:40:39;;;;;;;9.88;3.00;;;;;;;;;;5066047;28;20328;-79
2021/12/20 14:43:11;;;;;;;15.18;3.78;;;;;;;;;;5074800;28;20044;-79
2021/12/20 14:45:37;;;;;;;14.03;3.93;;;;;;;;;;5050681;28;20060;-80
2021/12/20 14:48:26;;;;;;;9.27;3.53;;;;;;;;;;5065969;28;20370;-80
2021/12/20 14:50:53;;;;;;;14.02;4.50;;;;;;;;;;5084334;28;20044;-81
2021/12/20 14:53:20;;;;;;;17.85;4.32;;;;;;;;;;5066570;28;20082;-81